sensor_id;sensor_type;location;lat;lon;timestamp;temperature;humidity
57843;DHT22;43673;51.058;3.734;2023-11-21T00:00:29;10.70;99.90
57843;DHT22;43673;51.058;3.734;2023-11-21T00:02:55;10.80;99.90
57843;DHT22;43673;51.058;3.734;2023-11-21T00:05:21;10.70;99.90
57843;DHT22;43673;51.058;3.734;2023-11-21T00:07:48;10.80;99.90
57843;DHT22;43673;51.058;3.734;2023-11-21T00:10:14;10.80;99.90
57843;DHT22;43673;51.058;3.734;2023-11-21T00:12:41;10.80;99.90
57843;DHT22;43673;51.058;3.734;2023-11-21T00:15:10;10.80;99.90
57843;DHT22;43673;51.058;3.734;2023-11-21T00:17:37;10.90;99.90
57843;DHT22;43673;51.058;3.734;2023-11-21T00:20:04;10.80;99.90
57843;DHT22;43673;51.058;3.734;2023-11-21T00:22:33;10.90;99.90
57843;DHT22;43673;51.058;3.734;2023-11-21T00:24:58;10.90;99.90
57843;DHT22;43673;51.058;3.734;2023-11-21T00:27:24;11.00;99.90
57843;DHT22;43673;51.058;3.734;2023-11-21T00:29:53;11.00;99.90
57843;DHT22;43673;51.058;3.734;2023-11-21T00:32:19;11.00;99.90
57843;DHT22;43673;51.058;3.734;2023-11-21T00:34:44;11.00;99.90
57843;DHT22;43673;51.058;3.734;2023-11-21T00:37:10;10.90;99.90
57843;DHT22;43673;51.058;3.734;2023-11-21T00:39:36;10.90;99.90
57843;DHT22;43673;51.058;3.734;2023-11-21T00:42:02;11.00;99.90
57843;DHT22;43673;51.058;3.734;2023-11-21T00:44:27;11.00;99.90
57843;DHT22;43673;51.058;3.734;2023-11-21T00:46:59;11.00;99.90
57843;DHT22;43673;51.058;3.734;2023-11-21T00:49:31;11.10;99.90
57843;DHT22;43673;51.058;3.734;2023-11-21T00:51:57;11.00;99.90
57843;DHT22;43673;51.058;3.734;2023-11-21T00:54:23;11.00;99.90
57843;DHT22;43673;51.058;3.734;2023-11-21T00:56:49;11.00;99.90
57843;DHT22;43673;51.058;3.734;2023-11-21T00:59:15;11.00;99.90
57843;DHT22;43673;51.058;3.734;2023-11-21T01:01:41;11.00;99.90
57843;DHT22;43673;51.058;3.734;2023-11-21T01:04:06;11.00;99.90
57843;DHT22;43673;51.058;3.734;2023-11-21T01:06:35;11.00;99.90
57843;DHT22;43673;51.058;3.734;2023-11-21T01:09:01;11.00;99.90
57843;DHT22;43673;51.058;3.734;2023-11-21T01:11:29;10.90;99.90
57843;DHT22;43673;51.058;3.734;2023-11-21T01:13:57;10.90;99.90
57843;DHT22;43673;51.058;3.734;2023-11-21T01:16:25;10.80;99.90
57843;DHT22;43673;51.058;3.734;2023-11-21T01:18:51;10.80;99.90
57843;DHT22;43673;51.058;3.734;2023-11-21T01:21:16;10.90;99.90
57843;DHT22;43673;51.058;3.734;2023-11-21T01:23:43;10.90;99.90
57843;DHT22;43673;51.058;3.734;2023-11-21T01:26:08;11.00;99.90
57843;DHT22;43673;51.058;3.734;2023-11-21T01:28:34;11.00;99.90
57843;DHT22;43673;51.058;3.734;2023-11-21T01:31:00;11.10;99.90
57843;DHT22;43673;51.058;3.734;2023-11-21T01:33:25;11.10;99.90
57843;DHT22;43673;51.058;3.734;2023-11-21T01:35:51;11.10;99.90
57843;DHT22;43673;51.058;3.734;2023-11-21T01:38:20;11.10;99.90
57843;DHT22;43673;51.058;3.734;2023-11-21T01:40:46;11.10;99.90
57843;DHT22;43673;51.058;3.734;2023-11-21T01:43:12;11.10;99.90
57843;DHT22;43673;51.058;3.734;2023-11-21T01:45:37;11.10;99.90
57843;DHT22;43673;51.058;3.734;2023-11-21T01:48:08;11.10;99.90
57843;DHT22;43673;51.058;3.734;2023-11-21T01:50:34;11.10;99.90
57843;DHT22;43673;51.058;3.734;2023-11-21T01:53:00;11.30;99.90
57843;DHT22;43673;51.058;3.734;2023-11-21T01:55:27;11.10;99.90
57843;DHT22;43673;51.058;3.734;2023-11-21T01:57:54;11.10;99.90
57843;DHT22;43673;51.058;3.734;2023-11-21T02:00:19;11.10;99.90
57843;DHT22;43673;51.058;3.734;2023-11-21T02:02:46;11.10;99.90
57843;DHT22;43673;51.058;3.734;2023-11-21T02:05:16;11.10;99.90
57843;DHT22;43673;51.058;3.734;2023-11-21T02:07:44;11.10;99.90
57843;DHT22;43673;51.058;3.734;2023-11-21T02:10:10;11.10;99.90
57843;DHT22;43673;51.058;3.734;2023-11-21T02:12:56;11.20;99.90
57843;DHT22;43673;51.058;3.734;2023-11-21T02:15:23;11.20;99.90
57843;DHT22;43673;51.058;3.734;2023-11-21T02:17:52;11.20;99.90
57843;DHT22;43673;51.058;3.734;2023-11-21T02:20:20;11.30;99.90
57843;DHT22;43673;51.058;3.734;2023-11-21T02:22:51;11.20;99.90
57843;DHT22;43673;51.058;3.734;2023-11-21T02:25:30;11.20;99.90
57843;DHT22;43673;51.058;3.734;2023-11-21T02:27:57;11.30;99.90
57843;DHT22;43673;51.058;3.734;2023-11-21T02:30:23;11.20;99.90
57843;DHT22;43673;51.058;3.734;2023-11-21T02:33:09;11.20;99.90
57843;DHT22;43673;51.058;3.734;2023-11-21T02:35:35;11.10;99.90
57843;DHT22;43673;51.058;3.734;2023-11-21T02:38:01;11.10;99.90
57843;DHT22;43673;51.058;3.734;2023-11-21T02:40:27;11.10;99.90
57843;DHT22;43673;51.058;3.734;2023-11-21T02:42:52;11.10;99.90
57843;DHT22;43673;51.058;3.734;2023-11-21T02:45:20;11.10;99.90
57843;DHT22;43673;51.058;3.734;2023-11-21T02:47:46;11.10;99.90
57843;DHT22;43673;51.058;3.734;2023-11-21T02:50:12;11.10;99.90
57843;DHT22;43673;51.058;3.734;2023-11-21T02:52:38;11.10;99.90
57843;DHT22;43673;51.058;3.734;2023-11-21T02:55:06;11.10;99.90
57843;DHT22;43673;51.058;3.734;2023-11-21T02:57:32;11.10;99.90
57843;DHT22;43673;51.058;3.734;2023-11-21T02:59:59;11.20;99.90
57843;DHT22;43673;51.058;3.734;2023-11-21T03:02:25;11.10;99.90
57843;DHT22;43673;51.058;3.734;2023-11-21T03:04:51;11.10;99.90
57843;DHT22;43673;51.058;3.734;2023-11-21T03:07:17;11.30;99.90
57843;DHT22;43673;51.058;3.734;2023-11-21T03:09:47;11.20;99.90
57843;DHT22;43673;51.058;3.734;2023-11-21T03:12:13;11.20;99.90
57843;DHT22;43673;51.058;3.734;2023-11-21T03:14:39;11.20;99.90
57843;DHT22;43673;51.058;3.734;2023-11-21T03:17:05;11.20;99.90
57843;DHT22;43673;51.058;3.734;2023-11-21T03:19:32;11.30;99.90
57843;DHT22;43673;51.058;3.734;2023-11-21T03:21:57;11.30;99.90
57843;DHT22;43673;51.058;3.734;2023-11-21T03:24:24;11.20;99.90
57843;DHT22;43673;51.058;3.734;2023-11-21T03:26:50;11.20;99.90
57843;DHT22;43673;51.058;3.734;2023-11-21T03:29:16;11.30;99.90
57843;DHT22;43673;51.058;3.734;2023-11-21T03:31:42;11.30;99.90
57843;DHT22;43673;51.058;3.734;2023-11-21T03:34:14;11.20;99.90
57843;DHT22;43673;51.058;3.734;2023-11-21T03:36:40;11.20;99.90
57843;DHT22;43673;51.058;3.734;2023-11-21T03:39:06;11.50;99.90
57843;DHT22;43673;51.058;3.734;2023-11-21T03:41:31;11.20;99.90
57843;DHT22;43673;51.058;3.734;2023-11-21T03:43:57;11.20;99.90
57843;DHT22;43673;51.058;3.734;2023-11-21T03:46:23;11.00;99.90
57843;DHT22;43673;51.058;3.734;2023-11-21T03:48:48;11.20;99.90
57843;DHT22;43673;51.058;3.734;2023-11-21T03:51:14;11.30;99.90
57843;DHT22;43673;51.058;3.734;2023-11-21T03:53:40;11.30;99.90
57843;DHT22;43673;51.058;3.734;2023-11-21T03:56:06;11.30;99.90
57843;DHT22;43673;51.058;3.734;2023-11-21T03:58:32;11.30;99.90
57843;DHT22;43673;51.058;3.734;2023-11-21T04:00:57;11.30;99.90
57843;DHT22;43673;51.058;3.734;2023-11-21T04:03:23;11.30;99.90
57843;DHT22;43673;51.058;3.734;2023-11-21T04:05:49;11.30;99.90
57843;DHT22;43673;51.058;3.734;2023-11-21T04:08:15;11.40;99.90
57843;DHT22;43673;51.058;3.734;2023-11-21T04:10:40;11.40;99.90
57843;DHT22;43673;51.058;3.734;2023-11-21T04:13:07;11.40;99.90
57843;DHT22;43673;51.058;3.734;2023-11-21T04:15:33;11.50;99.90
57843;DHT22;43673;51.058;3.734;2023-11-21T04:17:59;11.50;99.90
57843;DHT22;43673;51.058;3.734;2023-11-21T04:20:25;11.40;99.90
57843;DHT22;43673;51.058;3.734;2023-11-21T04:22:51;11.50;99.90
57843;DHT22;43673;51.058;3.734;2023-11-21T04:25:17;11.50;99.90
57843;DHT22;43673;51.058;3.734;2023-11-21T04:27:43;11.50;99.90
57843;DHT22;43673;51.058;3.734;2023-11-21T04:30:14;11.50;99.90
57843;DHT22;43673;51.058;3.734;2023-11-21T04:32:40;11.60;99.90
57843;DHT22;43673;51.058;3.734;2023-11-21T04:35:07;11.60;99.90
57843;DHT22;43673;51.058;3.734;2023-11-21T04:37:34;11.70;99.90
57843;DHT22;43673;51.058;3.734;2023-11-21T04:39:59;11.70;99.90
57843;DHT22;43673;51.058;3.734;2023-11-21T04:42:27;11.70;99.90
57843;DHT22;43673;51.058;3.734;2023-11-21T04:44:54;11.70;99.90
57843;DHT22;43673;51.058;3.734;2023-11-21T04:47:20;11.70;99.90
57843;DHT22;43673;51.058;3.734;2023-11-21T04:49:46;11.60;99.90
57843;DHT22;43673;51.058;3.734;2023-11-21T04:52:14;11.60;99.90
57843;DHT22;43673;51.058;3.734;2023-11-21T04:54:40;11.70;99.90
57843;DHT22;43673;51.058;3.734;2023-11-21T04:57:06;11.70;99.90
57843;DHT22;43673;51.058;3.734;2023-11-21T04:59:33;11.70;99.90
57843;DHT22;43673;51.058;3.734;2023-11-21T05:01:59;11.70;99.90
57843;DHT22;43673;51.058;3.734;2023-11-21T05:04:26;11.60;99.90
57843;DHT22;43673;51.058;3.734;2023-11-21T05:06:52;11.80;99.90
57843;DHT22;43673;51.058;3.734;2023-11-21T05:09:18;11.80;99.90
57843;DHT22;43673;51.058;3.734;2023-11-21T05:11:43;11.80;99.90
57843;DHT22;43673;51.058;3.734;2023-11-21T05:14:09;11.80;99.90
57843;DHT22;43673;51.058;3.734;2023-11-21T05:16:36;11.80;99.90
57843;DHT22;43673;51.058;3.734;2023-11-21T05:19:02;11.80;99.90
57843;DHT22;43673;51.058;3.734;2023-11-21T05:21:30;11.80;99.90
57843;DHT22;43673;51.058;3.734;2023-11-21T05:23:58;11.80;99.90
57843;DHT22;43673;51.058;3.734;2023-11-21T05:26:24;11.80;99.90
57843;DHT22;43673;51.058;3.734;2023-11-21T05:28:50;11.80;99.90
57843;DHT22;43673;51.058;3.734;2023-11-21T05:31:16;11.80;99.90
57843;DHT22;43673;51.058;3.734;2023-11-21T05:33:42;11.70;99.90
57843;DHT22;43673;51.058;3.734;2023-11-21T05:36:07;11.60;99.90
57843;DHT22;43673;51.058;3.734;2023-11-21T05:38:35;11.60;99.90
57843;DHT22;43673;51.058;3.734;2023-11-21T05:41:02;11.60;99.90
57843;DHT22;43673;51.058;3.734;2023-11-21T05:43:30;11.70;99.90
57843;DHT22;43673;51.058;3.734;2023-11-21T05:45:57;11.90;99.90
57843;DHT22;43673;51.058;3.734;2023-11-21T05:48:23;11.80;99.90
57843;DHT22;43673;51.058;3.734;2023-11-21T05:50:49;11.70;99.90
57843;DHT22;43673;51.058;3.734;2023-11-21T05:53:15;11.70;99.90
57843;DHT22;43673;51.058;3.734;2023-11-21T05:55:42;11.80;99.90
57843;DHT22;43673;51.058;3.734;2023-11-21T05:58:08;11.80;99.90
57843;DHT22;43673;51.058;3.734;2023-11-21T06:00:34;11.80;99.90
57843;DHT22;43673;51.058;3.734;2023-11-21T06:03:00;11.80;99.90
57843;DHT22;43673;51.058;3.734;2023-11-21T06:05:26;11.80;99.90
57843;DHT22;43673;51.058;3.734;2023-11-21T06:07:53;11.80;99.90
57843;DHT22;43673;51.058;3.734;2023-11-21T06:10:20;11.80;99.90
57843;DHT22;43673;51.058;3.734;2023-11-21T06:12:47;11.80;99.90
57843;DHT22;43673;51.058;3.734;2023-11-21T06:15:12;11.80;99.90
57843;DHT22;43673;51.058;3.734;2023-11-21T06:17:42;11.70;99.90
57843;DHT22;43673;51.058;3.734;2023-11-21T06:20:09;11.80;99.90
57843;DHT22;43673;51.058;3.734;2023-11-21T06:22:37;11.70;99.90
57843;DHT22;43673;51.058;3.734;2023-11-21T06:25:03;11.80;99.90
57843;DHT22;43673;51.058;3.734;2023-11-21T06:27:38;11.70;99.90
57843;DHT22;43673;51.058;3.734;2023-11-21T06:30:04;11.70;99.90
57843;DHT22;43673;51.058;3.734;2023-11-21T06:32:32;11.70;99.90
57843;DHT22;43673;51.058;3.734;2023-11-21T06:34:58;12.00;99.90
57843;DHT22;43673;51.058;3.734;2023-11-21T06:37:30;11.80;99.90
57843;DHT22;43673;51.058;3.734;2023-11-21T06:39:56;11.70;99.90
57843;DHT22;43673;51.058;3.734;2023-11-21T06:42:22;11.60;99.90
57843;DHT22;43673;51.058;3.734;2023-11-21T06:44:49;11.60;99.90
57843;DHT22;43673;51.058;3.734;2023-11-21T06:47:17;11.70;99.90
57843;DHT22;43673;51.058;3.734;2023-11-21T06:49:44;11.60;99.90
57843;DHT22;43673;51.058;3.734;2023-11-21T06:52:13;11.60;99.90
57843;DHT22;43673;51.058;3.734;2023-11-21T06:54:39;11.60;99.90
57843;DHT22;43673;51.058;3.734;2023-11-21T06:57:05;11.70;99.90
57843;DHT22;43673;51.058;3.734;2023-11-21T06:59:30;11.70;99.90
57843;DHT22;43673;51.058;3.734;2023-11-21T07:01:56;11.70;99.90
57843;DHT22;43673;51.058;3.734;2023-11-21T07:04:22;11.70;99.90
57843;DHT22;43673;51.058;3.734;2023-11-21T07:06:48;11.70;99.90
57843;DHT22;43673;51.058;3.734;2023-11-21T07:09:13;11.70;99.90
57843;DHT22;43673;51.058;3.734;2023-11-21T07:11:41;11.70;99.90
57843;DHT22;43673;51.058;3.734;2023-11-21T07:14:07;11.70;99.90
57843;DHT22;43673;51.058;3.734;2023-11-21T07:16:36;11.70;99.90
57843;DHT22;43673;51.058;3.734;2023-11-21T07:19:06;11.70;99.90
57843;DHT22;43673;51.058;3.734;2023-11-21T07:21:33;11.80;99.90
57843;DHT22;43673;51.058;3.734;2023-11-21T07:24:00;11.80;99.90
57843;DHT22;43673;51.058;3.734;2023-11-21T07:26:27;11.70;99.90
57843;DHT22;43673;51.058;3.734;2023-11-21T07:28:53;11.80;99.90
57843;DHT22;43673;51.058;3.734;2023-11-21T07:31:18;11.80;99.90
57843;DHT22;43673;51.058;3.734;2023-11-21T07:33:45;11.80;99.90
57843;DHT22;43673;51.058;3.734;2023-11-21T07:36:13;11.90;99.90
57843;DHT22;43673;51.058;3.734;2023-11-21T07:38:39;11.90;99.90
57843;DHT22;43673;51.058;3.734;2023-11-21T07:41:05;11.90;99.90
57843;DHT22;43673;51.058;3.734;2023-11-21T07:43:36;11.90;99.90
57843;DHT22;43673;51.058;3.734;2023-11-21T07:46:03;11.90;99.90
57843;DHT22;43673;51.058;3.734;2023-11-21T07:48:30;12.00;99.90
57843;DHT22;43673;51.058;3.734;2023-11-21T07:50:57;12.00;99.90
57843;DHT22;43673;51.058;3.734;2023-11-21T07:53:26;12.00;99.90
57843;DHT22;43673;51.058;3.734;2023-11-21T07:55:54;12.10;99.90
57843;DHT22;43673;51.058;3.734;2023-11-21T07:58:20;12.10;99.90
57843;DHT22;43673;51.058;3.734;2023-11-21T08:00:49;12.10;99.90
57843;DHT22;43673;51.058;3.734;2023-11-21T08:03:16;12.10;99.90
57843;DHT22;43673;51.058;3.734;2023-11-21T08:05:42;12.10;99.90
57843;DHT22;43673;51.058;3.734;2023-11-21T08:08:08;12.20;99.90
57843;DHT22;43673;51.058;3.734;2023-11-21T08:10:34;12.30;99.90
57843;DHT22;43673;51.058;3.734;2023-11-21T08:13:05;12.30;99.90
57843;DHT22;43673;51.058;3.734;2023-11-21T08:15:32;12.30;99.90
57843;DHT22;43673;51.058;3.734;2023-11-21T08:17:58;12.40;99.90
57843;DHT22;43673;51.058;3.734;2023-11-21T08:20:24;12.40;99.90
57843;DHT22;43673;51.058;3.734;2023-11-21T08:22:50;12.40;99.90
57843;DHT22;43673;51.058;3.734;2023-11-21T08:25:18;12.30;99.90
57843;DHT22;43673;51.058;3.734;2023-11-21T08:27:45;12.20;99.90
57843;DHT22;43673;51.058;3.734;2023-11-21T08:30:11;12.30;99.90
57843;DHT22;43673;51.058;3.734;2023-11-21T08:32:39;12.40;99.90
57843;DHT22;43673;51.058;3.734;2023-11-21T08:35:05;12.50;99.90
57843;DHT22;43673;51.058;3.734;2023-11-21T08:37:31;12.70;99.90
57843;DHT22;43673;51.058;3.734;2023-11-21T08:39:58;12.90;99.90
57843;DHT22;43673;51.058;3.734;2023-11-21T08:42:27;13.40;99.90
57843;DHT22;43673;51.058;3.734;2023-11-21T08:44:55;14.10;99.90
57843;DHT22;43673;51.058;3.734;2023-11-21T08:47:23;15.00;99.90
57843;DHT22;43673;51.058;3.734;2023-11-21T08:49:50;15.70;99.90
57843;DHT22;43673;51.058;3.734;2023-11-21T08:52:18;16.30;99.90
57843;DHT22;43673;51.058;3.734;2023-11-21T08:54:46;17.10;99.90
57843;DHT22;43673;51.058;3.734;2023-11-21T08:57:12;17.70;99.90
57843;DHT22;43673;51.058;3.734;2023-11-21T08:59:38;18.10;99.90
57843;DHT22;43673;51.058;3.734;2023-11-21T09:02:03;18.20;99.90
57843;DHT22;43673;51.058;3.734;2023-11-21T09:04:29;18.20;99.90
57843;DHT22;43673;51.058;3.734;2023-11-21T09:06:55;18.70;99.90
57843;DHT22;43673;51.058;3.734;2023-11-21T09:09:20;19.00;99.90
57843;DHT22;43673;51.058;3.734;2023-11-21T09:11:46;19.40;99.90
57843;DHT22;43673;51.058;3.734;2023-11-21T09:14:14;19.80;99.90
57843;DHT22;43673;51.058;3.734;2023-11-21T09:16:41;20.20;99.90
57843;DHT22;43673;51.058;3.734;2023-11-21T09:19:08;20.60;99.90
57843;DHT22;43673;51.058;3.734;2023-11-21T09:21:34;21.00;99.90
57843;DHT22;43673;51.058;3.734;2023-11-21T09:24:00;21.10;99.90
57843;DHT22;43673;51.058;3.734;2023-11-21T09:26:26;21.90;99.90
57843;DHT22;43673;51.058;3.734;2023-11-21T09:28:51;22.00;99.90
57843;DHT22;43673;51.058;3.734;2023-11-21T09:31:18;21.50;99.90
57843;DHT22;43673;51.058;3.734;2023-11-21T09:33:48;20.60;99.90
57843;DHT22;43673;51.058;3.734;2023-11-21T09:36:14;20.10;99.90
57843;DHT22;43673;51.058;3.734;2023-11-21T09:38:42;19.50;99.90
57843;DHT22;43673;51.058;3.734;2023-11-21T09:41:23;18.90;99.90
57843;DHT22;43673;51.058;3.734;2023-11-21T09:43:55;18.50;99.90
57843;DHT22;43673;51.058;3.734;2023-11-21T09:46:27;18.10;99.90
57843;DHT22;43673;51.058;3.734;2023-11-21T09:48:53;17.90;99.90
57843;DHT22;43673;51.058;3.734;2023-11-21T09:51:23;17.60;99.90
57843;DHT22;43673;51.058;3.734;2023-11-21T09:53:52;17.20;99.90
57843;DHT22;43673;51.058;3.734;2023-11-21T09:56:19;17.10;99.90
57843;DHT22;43673;51.058;3.734;2023-11-21T09:58:53;17.00;99.90
57843;DHT22;43673;51.058;3.734;2023-11-21T10:01:22;16.80;99.90
57843;DHT22;43673;51.058;3.734;2023-11-21T10:03:49;16.40;99.90
57843;DHT22;43673;51.058;3.734;2023-11-21T10:06:16;16.20;99.90
57843;DHT22;43673;51.058;3.734;2023-11-21T10:08:43;15.90;99.90
57843;DHT22;43673;51.058;3.734;2023-11-21T10:11:11;15.90;99.90
57843;DHT22;43673;51.058;3.734;2023-11-21T10:13:37;16.00;99.90
57843;DHT22;43673;51.058;3.734;2023-11-21T10:16:07;15.90;99.90
57843;DHT22;43673;51.058;3.734;2023-11-21T10:18:37;15.80;99.90
57843;DHT22;43673;51.058;3.734;2023-11-21T10:21:06;15.80;99.90
57843;DHT22;43673;51.058;3.734;2023-11-21T10:23:32;15.60;99.90
57843;DHT22;43673;51.058;3.734;2023-11-21T10:25:59;15.50;99.90
57843;DHT22;43673;51.058;3.734;2023-11-21T10:28:25;15.50;99.90
57843;DHT22;43673;51.058;3.734;2023-11-21T10:30:51;15.70;99.90
57843;DHT22;43673;51.058;3.734;2023-11-21T10:33:27;15.60;99.90
57843;DHT22;43673;51.058;3.734;2023-11-21T10:35:53;15.90;99.90
57843;DHT22;43673;51.058;3.734;2023-11-21T10:38:21;16.10;99.90
57843;DHT22;43673;51.058;3.734;2023-11-21T10:40:50;16.30;99.90
57843;DHT22;43673;51.058;3.734;2023-11-21T10:43:16;16.50;99.90
57843;DHT22;43673;51.058;3.734;2023-11-21T10:45:43;16.50;99.90
57843;DHT22;43673;51.058;3.734;2023-11-21T10:48:11;16.60;99.90
57843;DHT22;43673;51.058;3.734;2023-11-21T10:50:40;16.40;99.90
57843;DHT22;43673;51.058;3.734;2023-11-21T10:53:06;16.20;99.90
57843;DHT22;43673;51.058;3.734;2023-11-21T10:55:34;16.00;99.90
57843;DHT22;43673;51.058;3.734;2023-11-21T10:58:02;15.90;99.90
57843;DHT22;43673;51.058;3.734;2023-11-21T11:00:31;15.90;99.90
57843;DHT22;43673;51.058;3.734;2023-11-21T11:02:57;15.90;99.90
57843;DHT22;43673;51.058;3.734;2023-11-21T11:05:28;15.70;99.90
57843;DHT22;43673;51.058;3.734;2023-11-21T11:08:05;15.40;99.90
57843;DHT22;43673;51.058;3.734;2023-11-21T11:10:34;15.00;99.90
57843;DHT22;43673;51.058;3.734;2023-11-21T11:13:00;14.80;99.90
57843;DHT22;43673;51.058;3.734;2023-11-21T11:15:29;14.70;99.90
57843;DHT22;43673;51.058;3.734;2023-11-21T11:17:55;14.50;99.90
57843;DHT22;43673;51.058;3.734;2023-11-21T11:20:24;14.70;99.90
57843;DHT22;43673;51.058;3.734;2023-11-21T11:26:26;14.60;99.90
57843;DHT22;43673;51.058;3.734;2023-11-21T11:39:35;14.00;99.90
57843;DHT22;43673;51.058;3.734;2023-11-21T11:42:11;14.10;99.90
57843;DHT22;43673;51.058;3.734;2023-11-21T11:52:47;14.20;99.90
57843;DHT22;43673;51.058;3.734;2023-11-21T11:55:15;14.50;99.90
57843;DHT22;43673;51.058;3.734;2023-11-21T11:57:52;14.60;99.90
57843;DHT22;43673;51.058;3.734;2023-11-21T12:00:21;14.70;99.90
57843;DHT22;43673;51.058;3.734;2023-11-21T12:02:54;14.70;99.90
57843;DHT22;43673;51.058;3.734;2023-11-21T12:05:22;14.90;99.90
57843;DHT22;43673;51.058;3.734;2023-11-21T12:07:53;14.90;99.90
57843;DHT22;43673;51.058;3.734;2023-11-21T12:10:21;14.80;99.90
57843;DHT22;43673;51.058;3.734;2023-11-21T12:12:50;14.70;99.90
57843;DHT22;43673;51.058;3.734;2023-11-21T12:15:16;14.60;99.90
57843;DHT22;43673;51.058;3.734;2023-11-21T12:17:43;14.50;99.90
57843;DHT22;43673;51.058;3.734;2023-11-21T12:20:10;14.50;99.90
57843;DHT22;43673;51.058;3.734;2023-11-21T12:22:47;14.30;99.90
57843;DHT22;43673;51.058;3.734;2023-11-21T12:25:20;14.30;99.90
57843;DHT22;43673;51.058;3.734;2023-11-21T12:27:48;14.20;99.90
57843;DHT22;43673;51.058;3.734;2023-11-21T12:30:15;14.20;99.90
57843;DHT22;43673;51.058;3.734;2023-11-21T12:32:49;14.00;99.90
57843;DHT22;43673;51.058;3.734;2023-11-21T12:35:17;14.00;99.90
57843;DHT22;43673;51.058;3.734;2023-11-21T12:37:45;14.00;99.90
57843;DHT22;43673;51.058;3.734;2023-11-21T12:40:12;13.80;99.90
57843;DHT22;43673;51.058;3.734;2023-11-21T12:42:45;13.70;99.90
57843;DHT22;43673;51.058;3.734;2023-11-21T12:45:24;13.70;99.90
57843;DHT22;43673;51.058;3.734;2023-11-21T12:48:00;13.60;99.90
57843;DHT22;43673;51.058;3.734;2023-11-21T12:50:30;13.60;99.90
57843;DHT22;43673;51.058;3.734;2023-11-21T12:53:04;13.60;99.90
57843;DHT22;43673;51.058;3.734;2023-11-21T12:55:32;13.60;99.90
57843;DHT22;43673;51.058;3.734;2023-11-21T12:58:04;13.50;99.90
57843;DHT22;43673;51.058;3.734;2023-11-21T13:00:47;13.60;99.90
57843;DHT22;43673;51.058;3.734;2023-11-21T13:03:15;13.40;99.90
57843;DHT22;43673;51.058;3.734;2023-11-21T13:05:51;13.40;99.90
57843;DHT22;43673;51.058;3.734;2023-11-21T13:08:21;13.40;99.90
57843;DHT22;43673;51.058;3.734;2023-11-21T13:10:52;13.40;99.90
57843;DHT22;43673;51.058;3.734;2023-11-21T13:13:19;13.40;99.90
57843;DHT22;43673;51.058;3.734;2023-11-21T13:16:00;13.40;99.90
57843;DHT22;43673;51.058;3.734;2023-11-21T13:18:31;13.40;99.90
57843;DHT22;43673;51.058;3.734;2023-11-21T13:20:59;13.40;99.90
57843;DHT22;43673;51.058;3.734;2023-11-21T13:23:26;13.40;99.90
57843;DHT22;43673;51.058;3.734;2023-11-21T13:25:53;13.50;99.90
57843;DHT22;43673;51.058;3.734;2023-11-21T13:28:19;13.50;99.90
57843;DHT22;43673;51.058;3.734;2023-11-21T13:30:47;13.60;99.90
57843;DHT22;43673;51.058;3.734;2023-11-21T13:33:13;13.60;99.90
57843;DHT22;43673;51.058;3.734;2023-11-21T13:35:43;13.70;99.90
57843;DHT22;43673;51.058;3.734;2023-11-21T13:38:15;13.80;99.90
57843;DHT22;43673;51.058;3.734;2023-11-21T13:40:54;13.80;99.90
57843;DHT22;43673;51.058;3.734;2023-11-21T13:43:21;13.80;99.90
57843;DHT22;43673;51.058;3.734;2023-11-21T13:45:50;13.80;99.90
57843;DHT22;43673;51.058;3.734;2023-11-21T13:48:21;13.70;99.90
57843;DHT22;43673;51.058;3.734;2023-11-21T13:50:53;13.70;99.90
57843;DHT22;43673;51.058;3.734;2023-11-21T13:53:27;13.60;99.90
57843;DHT22;43673;51.058;3.734;2023-11-21T13:55:55;13.60;99.90
57843;DHT22;43673;51.058;3.734;2023-11-21T13:58:26;13.60;99.90
57843;DHT22;43673;51.058;3.734;2023-11-21T14:01:10;13.60;99.90
57843;DHT22;43673;51.058;3.734;2023-11-21T14:04:04;13.50;99.90
57843;DHT22;43673;51.058;3.734;2023-11-21T14:06:49;13.50;99.90
57843;DHT22;43673;51.058;3.734;2023-11-21T14:09:22;13.70;99.90
57843;DHT22;43673;51.058;3.734;2023-11-21T14:11:55;13.40;99.90
57843;DHT22;43673;51.058;3.734;2023-11-21T14:14:25;13.40;99.90
57843;DHT22;43673;51.058;3.734;2023-11-21T14:16:51;13.50;99.90
57843;DHT22;43673;51.058;3.734;2023-11-21T14:19:18;13.40;99.90
57843;DHT22;43673;51.058;3.734;2023-11-21T14:21:44;13.40;99.90
57843;DHT22;43673;51.058;3.734;2023-11-21T14:24:11;13.40;99.90
57843;DHT22;43673;51.058;3.734;2023-11-21T14:26:47;13.30;99.90
57843;DHT22;43673;51.058;3.734;2023-11-21T14:29:14;13.30;99.90
57843;DHT22;43673;51.058;3.734;2023-11-21T14:31:43;13.40;99.90
57843;DHT22;43673;51.058;3.734;2023-11-21T14:34:10;13.40;99.90
57843;DHT22;43673;51.058;3.734;2023-11-21T14:36:38;13.40;99.90
57843;DHT22;43673;51.058;3.734;2023-11-21T14:39:05;13.40;99.90
57843;DHT22;43673;51.058;3.734;2023-11-21T14:41:37;13.40;99.90
57843;DHT22;43673;51.058;3.734;2023-11-21T14:44:05;13.40;99.90
57843;DHT22;43673;51.058;3.734;2023-11-21T14:46:34;13.40;99.90
57843;DHT22;43673;51.058;3.734;2023-11-21T14:49:02;13.50;99.90
57843;DHT22;43673;51.058;3.734;2023-11-21T14:51:46;13.40;99.90
57843;DHT22;43673;51.058;3.734;2023-11-21T14:54:33;13.40;99.90
57843;DHT22;43673;51.058;3.734;2023-11-21T14:57:13;13.40;99.90
57843;DHT22;43673;51.058;3.734;2023-11-21T14:59:45;13.40;99.90
57843;DHT22;43673;51.058;3.734;2023-11-21T15:02:17;13.40;99.90
57843;DHT22;43673;51.058;3.734;2023-11-21T15:04:48;13.30;99.90
57843;DHT22;43673;51.058;3.734;2023-11-21T15:07:16;13.10;99.90
57843;DHT22;43673;51.058;3.734;2023-11-21T15:09:42;13.00;99.90
57843;DHT22;43673;51.058;3.734;2023-11-21T15:12:09;12.90;99.90
57843;DHT22;43673;51.058;3.734;2023-11-21T15:14:41;12.90;99.90
57843;DHT22;43673;51.058;3.734;2023-11-21T15:17:09;12.80;99.90
57843;DHT22;43673;51.058;3.734;2023-11-21T15:19:35;12.80;99.90
57843;DHT22;43673;51.058;3.734;2023-11-21T15:22:02;12.80;99.90
57843;DHT22;43673;51.058;3.734;2023-11-21T15:24:28;12.70;99.90
57843;DHT22;43673;51.058;3.734;2023-11-21T15:26:54;12.70;99.90
57843;DHT22;43673;51.058;3.734;2023-11-21T15:29:20;12.70;99.90
57843;DHT22;43673;51.058;3.734;2023-11-21T15:31:47;12.70;99.90
57843;DHT22;43673;51.058;3.734;2023-11-21T15:34:15;12.70;99.90
57843;DHT22;43673;51.058;3.734;2023-11-21T15:36:41;12.70;99.90
57843;DHT22;43673;51.058;3.734;2023-11-21T15:39:06;12.70;99.90
57843;DHT22;43673;51.058;3.734;2023-11-21T15:41:37;12.70;99.90
57843;DHT22;43673;51.058;3.734;2023-11-21T15:44:05;12.70;99.90
57843;DHT22;43673;51.058;3.734;2023-11-21T15:46:33;12.60;99.90
57843;DHT22;43673;51.058;3.734;2023-11-21T15:48:59;12.50;99.90
57843;DHT22;43673;51.058;3.734;2023-11-21T15:51:25;12.50;99.90
57843;DHT22;43673;51.058;3.734;2023-11-21T15:53:50;12.50;99.90
57843;DHT22;43673;51.058;3.734;2023-11-21T15:56:17;12.50;99.90